Time;durP1;ratioP1;P1;durP2;ratioP2;P2;SDS_P1;SDS_P2;PMS_P1;PMS_P2;Temp;Humidity;BMP_temperature;BMP_pressure;BME280_temperature;BME280_humidity;BME280_pressure;Samples;Min_cycle;Max_cycle;Signal;HPM_P1;HPM_P2
2022/02/18 00:00:23;;;;;;;27.25;4.93;;;;;;;7.34;100.00;101058.66;10425264;28;20041;-75
2022/02/18 00:05:24;;;;;;;21.70;3.60;;;;;;;7.44;100.00;101056.63;10426249;28;20112;-75
2022/02/18 00:10:25;;;;;;;23.25;6.45;;;;;;;7.46;100.00;101041.09;10424946;28;20047;-75
2022/02/18 00:15:25;;;;;;;12.95;4.25;;;;;;;7.50;100.00;101033.50;10420291;28;20451;-75
2022/02/18 00:20:26;;;;;;;11.77;3.67;;;;;;;7.42;100.00;101021.75;10420004;28;20112;-75
2022/02/18 00:25:27;;;;;;;20.80;4.85;;;;;;;7.51;100.00;101027.13;10419309;28;20125;-75
2022/02/18 00:30:28;;;;;;;7.75;3.25;;;;;;;7.51;100.00;101008.25;10420199;28;20033;-75
2022/02/18 00:35:28;;;;;;;10.77;3.85;;;;;;;7.54;100.00;100999.81;10426489;28;20041;-75
2022/02/18 00:40:30;;;;;;;11.30;3.90;;;;;;;7.58;100.00;101004.69;10422026;28;20444;-75
2022/02/18 00:45:31;;;;;;;7.20;3.17;;;;;;;7.63;100.00;101001.47;10418694;28;20467;-75
2022/02/18 00:50:31;;;;;;;29.13;5.95;;;;;;;7.65;100.00;101013.72;10421456;28;20068;-75
2022/02/18 00:55:32;;;;;;;22.17;5.15;;;;;;;7.68;100.00;101008.00;10418824;28;20044;-75
2022/02/18 01:00:32;;;;;;;16.73;4.93;;;;;;;7.74;100.00;100995.66;10417859;28;20080;-75
2022/02/18 01:05:32;;;;;;;11.38;4.45;;;;;;;7.84;100.00;100984.66;10418729;28;20084;-75
2022/02/18 01:10:33;;;;;;;11.75;3.60;;;;;;;7.89;100.00;100983.13;10417627;28;20026;-75
2022/02/18 01:15:33;;;;;;;15.90;4.18;;;;;;;7.93;100.00;100991.69;10416690;28;20040;-75
2022/02/18 01:20:34;;;;;;;19.00;5.72;;;;;;;7.92;100.00;100974.69;10419716;28;20025;-75
2022/02/18 01:25:34;;;;;;;20.35;5.55;;;;;;;7.90;100.00;100960.53;10417061;28;20087;-75
2022/02/18 01:30:37;;;;;;;19.38;5.50;;;;;;;7.89;100.00;100952.63;10417378;28;20440;-75
2022/02/18 01:35:37;;;;;;;28.48;5.63;;;;;;;7.86;100.00;100942.19;10417508;28;20462;-75
2022/02/18 01:40:37;;;;;;;24.88;6.47;;;;;;;7.89;100.00;100931.91;10418299;28;20054;-75
2022/02/18 01:45:38;;;;;;;18.95;6.60;;;;;;;7.83;100.00;100929.91;10400204;28;20105;-75
2022/02/18 01:50:38;;;;;;;23.52;5.68;;;;;;;7.80;100.00;100905.16;10419850;28;20041;-75
2022/02/18 01:55:39;;;;;;;26.40;5.70;;;;;;;7.77;100.00;100883.97;10416188;28;20034;-75
2022/02/18 02:00:39;;;;;;;24.80;6.78;;;;;;;7.76;100.00;100866.13;10415995;28;20088;-75
2022/02/18 02:05:40;;;;;;;20.83;7.03;;;;;;;7.78;100.00;100856.81;10417762;28;20033;-75
2022/02/18 02:10:44;;;;;;;23.25;5.72;;;;;;;7.72;100.00;100848.59;10416109;28;20048;-75
2022/02/18 02:15:44;;;;;;;16.30;6.32;;;;;;;7.63;100.00;100837.91;10399500;28;20461;-75
2022/02/18 02:20:44;;;;;;;35.90;9.18;;;;;;;7.65;100.00;100822.38;10419716;28;20034;-75
2022/02/18 02:25:45;;;;;;;26.58;6.80;;;;;;;7.67;100.00;100809.56;10418451;28;20037;-75
2022/02/18 02:30:46;;;;;;;26.08;7.65;;;;;;;7.66;100.00;100791.72;10415904;28;20036;-75
2022/02/18 02:35:46;;;;;;;20.23;8.50;;;;;;;7.72;100.00;100775.84;10415524;28;20032;-75
2022/02/18 02:40:47;;;;;;;38.80;7.10;;;;;;;7.66;100.00;100766.66;10418245;28;20054;-75
2022/02/18 02:45:47;;;;;;;32.67;7.28;;;;;;;7.58;100.00;100764.84;10398371;28;20033;-75
2022/02/18 02:50:47;;;;;;;43.67;7.97;;;;;;;7.55;100.00;100750.88;10420102;28;20061;-75
2022/02/18 02:55:48;;;;;;;31.10;9.68;;;;;;;7.51;100.00;100728.88;10398445;28;20108;-75
2022/02/18 03:00:48;;;;;;;24.33;9.00;;;;;;;7.43;100.00;100700.16;10414823;28;20064;-75
2022/02/18 03:05:49;;;;;;;26.30;8.23;;;;;;;7.47;100.00;100692.53;10433193;28;20120;-75
2022/02/18 03:16:08;;;;;;;29.25;8.05;;;;;;;7.53;100.00;100658.63;10427373;28;20037;-75
2022/02/18 03:21:09;;;;;;;27.35;8.13;;;;;;;7.58;100.00;100646.28;10427050;28;20428;-75
2022/02/18 03:26:09;;;;;;;32.55;10.30;;;;;;;7.59;100.00;100622.84;10423045;28;20462;-75
2022/02/18 03:31:10;;;;;;;38.83;8.18;;;;;;;7.57;100.00;100598.78;10421070;28;20033;-75
2022/02/18 03:36:10;;;;;;;27.63;7.97;;;;;;;7.52;100.00;100576.94;10421636;28;20568;-75
2022/02/18 03:41:10;;;;;;;33.67;9.52;;;;;;;7.52;100.00;100547.31;10404223;28;20061;-75
2022/02/18 03:46:11;;;;;;;26.65;7.22;;;;;;;7.50;100.00;100513.47;10423052;28;20072;-75
2022/02/18 03:51:11;;;;;;;26.90;8.68;;;;;;;7.51;100.00;100493.63;10424299;28;20119;-75
2022/02/18 03:56:12;;;;;;;31.52;9.07;;;;;;;7.39;100.00;100491.38;10422918;28;20052;-75
2022/02/18 04:01:12;;;;;;;29.77;9.00;;;;;;;7.33;100.00;100478.66;10420772;28;20536;-75
2022/02/18 04:06:13;;;;;;;40.83;9.00;;;;;;;7.34;100.00;100471.41;10422335;28;20038;-75
2022/02/18 04:11:13;;;;;;;25.15;8.32;;;;;;;7.33;100.00;100499.38;10422189;28;20040;-75
2022/02/18 04:16:14;;;;;;;25.80;9.38;;;;;;;7.42;100.00;100482.94;10420739;28;20472;-75
2022/02/18 04:21:14;;;;;;;37.70;8.82;;;;;;;7.48;100.00;100462.50;10405086;28;20026;-75
2022/02/18 04:26:14;;;;;;;58.55;12.93;;;;;;;7.58;100.00;100449.56;10419850;28;20030;-75
2022/02/18 04:31:15;;;;;;;42.88;9.85;;;;;;;7.55;100.00;100432.94;10420323;28;20077;-75
2022/02/18 04:36:15;;;;;;;34.38;10.13;;;;;;;7.59;100.00;100410.81;10422472;28;20445;-75
2022/02/18 04:41:16;;;;;;;33.08;10.02;;;;;;;7.54;100.00;100386.31;10425585;28;20045;-75
2022/02/18 04:46:16;;;;;;;44.00;8.23;;;;;;;7.52;100.00;100368.66;10425242;28;20040;-75
2022/02/18 04:51:17;;;;;;;42.25;8.93;;;;;;;7.60;100.00;100328.13;10425982;28;20432;-75
2022/02/18 04:56:17;;;;;;;24.70;7.60;;;;;;;7.49;100.00;100321.38;10419074;28;20110;-75
2022/02/18 05:01:18;;;;;;;22.00;6.22;;;;;;;7.44;100.00;100318.44;10419165;28;20080;-75
2022/02/18 05:06:18;;;;;;;23.77;6.25;;;;;;;7.51;100.00;100322.03;10418903;28;20037;-75
2022/02/18 05:11:19;;;;;;;26.05;7.53;;;;;;;7.51;100.00;100291.56;10401056;28;20461;-75
2022/02/18 05:16:19;;;;;;;27.85;9.85;;;;;;;7.38;100.00;100266.16;10421205;28;20088;-76
2022/02/18 05:21:20;;;;;;;22.08;7.68;;;;;;;7.31;100.00;100257.19;10400915;28;20071;-75
2022/02/18 05:26:20;;;;;;;46.60;9.45;;;;;;;7.33;100.00;100249.72;10417674;28;20041;-75
2022/02/18 05:31:20;;;;;;;24.35;9.07;;;;;;;7.36;100.00;100218.88;10418035;28;20033;-75
2022/02/18 05:36:21;;;;;;;22.35;6.60;;;;;;;7.32;100.00;100185.28;10417103;28;20497;-75
2022/02/18 05:41:21;;;;;;;34.72;6.90;;;;;;;7.32;100.00;100169.97;10416942;28;20049;-76
2022/02/18 05:46:22;;;;;;;17.98;7.47;;;;;;;7.32;100.00;100150.28;10422130;28;20076;-75
2022/02/18 05:51:22;;;;;;;15.70;5.35;;;;;;;7.38;100.00;100127.97;10426496;28;20424;-75
2022/02/18 05:56:22;;;;;;;24.92;7.53;;;;;;;7.39;100.00;100108.06;10419055;28;20088;-75
2022/02/18 06:01:23;;;;;;;19.52;6.72;;;;;;;7.26;100.00;100075.66;10416218;28;20025;-75
2022/02/18 06:06:23;;;;;;;25.30;9.25;;;;;;;7.12;100.00;100047.81;10416602;28;20515;-75
2022/02/18 06:11:24;;;;;;;23.05;7.78;;;;;;;6.88;100.00;100047.19;10416766;28;20172;-76
2022/02/18 06:16:24;;;;;;;25.48;8.30;;;;;;;6.67;100.00;100039.16;10415555;28;20038;-75
2022/02/18 06:21:25;;;;;;;23.52;8.50;;;;;;;6.59;100.00;100005.13;10416434;28;20036;-75
2022/02/18 06:26:25;;;;;;;16.75;7.65;;;;;;;6.59;100.00;99996.25;10416063;28;20448;-75
2022/02/18 06:31:25;;;;;;;22.70;11.10;;;;;;;6.62;100.00;99964.41;10416112;28;20095;-76
2022/02/18 06:36:26;;;;;;;37.70;12.30;;;;;;;6.69;100.00;99943.75;10417098;28;20037;-75
2022/02/18 06:41:26;;;;;;;42.55;14.02;;;;;;;6.82;100.00;99944.88;10413939;28;20056;-76
2022/02/18 06:46:27;;;;;;;20.73;10.38;;;;;;;6.95;100.00;99936.88;10423181;28;20038;-76
2022/02/18 06:51:27;;;;;;;28.23;15.20;;;;;;;6.97;100.00;99911.44;10423699;28;20052;-76
2022/02/18 06:56:27;;;;;;;34.97;14.65;;;;;;;7.02;100.00;99900.09;10425593;28;20037;-76
2022/02/18 07:01:28;;;;;;;27.00;12.40;;;;;;;7.11;100.00;99887.28;10407967;28;20030;-77
2022/02/18 07:06:28;;;;;;;25.63;11.30;;;;;;;7.18;100.00;99863.94;10407742;28;20144;-76
2022/02/18 07:11:29;;;;;;;21.20;10.23;;;;;;;7.28;100.00;99856.31;10423319;28;20064;-75
2022/02/18 07:16:29;;;;;;;31.25;12.20;;;;;;;7.37;100.00;99849.72;10426902;28;20030;-76
2022/02/18 07:21:30;;;;;;;18.63;10.57;;;;;;;7.43;100.00;99821.97;10405664;28;20111;-77
2022/02/18 07:26:30;;;;;;;36.38;10.43;;;;;;;7.52;100.00;99805.59;10421926;28;20037;-77
2022/02/18 07:31:30;;;;;;;17.63;8.93;;;;;;;7.60;100.00;99781.19;10421882;28;20037;-78
2022/02/18 07:36:31;;;;;;;16.30;10.02;;;;;;;7.74;100.00;99785.53;10405273;28;20508;-80
2022/02/18 07:41:31;;;;;;;24.88;10.30;;;;;;;7.79;100.00;99763.38;10420061;28;20049;-77
2022/02/18 07:46:31;;;;;;;16.70;9.93;;;;;;;7.85;100.00;99755.28;10428733;28;20049;-80
2022/02/18 07:51:32;;;;;;;21.27;11.07;;;;;;;7.96;100.00;99740.31;10422031;28;20057;-77
2022/02/18 07:56:32;;;;;;;28.35;10.63;;;;;;;7.99;100.00;99726.44;10419987;28;20136;-78
2022/02/18 08:01:33;;;;;;;18.60;11.05;;;;;;;8.08;100.00;99708.19;10420983;28;20037;-78
2022/02/18 08:06:33;;;;;;;9.90;7.78;;;;;;;8.23;100.00;99697.97;10422248;28;20037;-79
2022/02/18 08:11:34;;;;;;;19.67;9.93;;;;;;;8.36;100.00;99697.13;10421897;28;20116;-79
2022/02/18 08:16:34;;;;;;;14.70;8.18;;;;;;;8.45;100.00;99668.03;10421540;28;20087;-79
2022/02/18 08:21:35;;;;;;;17.63;9.18;;;;;;;8.57;100.00;99658.22;10422646;28;20061;-79
2022/02/18 08:26:35;;;;;;;5.85;5.10;;;;;;;8.60;100.00;99653.22;10429966;28;20063;-79
2022/02/18 08:31:35;;;;;;;18.27;7.57;;;;;;;8.76;100.00;99648.38;10426570;28;20044;-78
2022/02/18 08:36:36;;;;;;;25.38;9.48;;;;;;;8.81;100.00;99629.69;10421604;28;20436;-78
2022/02/18 08:41:36;;;;;;;16.35;7.75;;;;;;;8.89;100.00;99604.28;10420150;28;20149;-80
2022/02/18 08:46:37;;;;;;;13.43;6.13;;;;;;;8.88;100.00;99579.16;10426976;28;20041;-79
2022/02/18 08:51:38;;;;;;;20.17;6.22;;;;;;;8.98;100.00;99570.56;10420009;28;20034;-78
2022/02/18 08:56:38;;;;;;;11.98;4.50;;;;;;;9.18;100.00;99565.00;10418302;28;20036;-79
2022/02/18 09:01:39;;;;;;;11.77;4.80;;;;;;;9.35;100.00;99558.00;10419433;28;20044;-78
2022/02/18 09:06:40;;;;;;;10.10;4.45;;;;;;;9.47;100.00;99531.06;10417289;28;20037;-78
2022/02/18 09:11:40;;;;;;;5.38;3.67;;;;;;;9.68;100.00;99517.09;10401907;28;20025;-78
2022/02/18 09:16:41;;;;;;;6.93;3.50;;;;;;;9.76;100.00;99472.72;10423657;28;20124;-76
2022/02/18 09:21:42;;;;;;;3.78;3.35;;;;;;;9.92;100.00;99477.53;10424849;28;20037;-77
2022/02/18 09:26:42;;;;;;;3.22;2.95;;;;;;;10.06;100.00;99480.88;10423993;28;20049;-77
2022/02/18 09:31:43;;;;;;;2.22;1.95;;;;;;;10.16;100.00;99462.19;10365067;28;20049;-80
2022/02/18 09:36:43;;;;;;;7.93;4.40;;;;;;;10.22;100.00;99444.22;10393599;28;20520;-78
2022/02/18 09:41:43;;;;;;;5.32;2.15;;;;;;;10.33;100.00;99442.63;10415987;28;20191;-80
2022/02/18 09:46:47;;;;;;;2.67;2.38;;;;;;;10.32;100.00;99430.19;10430595;28;20045;-80
2022/02/18 09:51:47;;;;;;;1.73;1.63;;;;;;;10.23;100.00;99416.94;10420286;28;20041;-80
2022/02/18 09:56:48;;;;;;;4.93;1.88;;;;;;;10.32;100.00;99409.34;10418871;28;20033;-78
2022/02/18 10:01:48;;;;;;;3.92;2.35;;;;;;;10.27;100.00;99398.38;10418224;28;20095;-78
2022/02/18 10:06:49;;;;;;;2.72;2.40;;;;;;;10.31;100.00;99387.94;10399027;28;20045;-78
2022/02/18 10:11:51;;;;;;;2.28;2.08;;;;;;;10.28;100.00;99381.13;10417180;28;20033;-78
2022/02/18 10:16:51;;;;;;;7.60;3.08;;;;;;;10.27;100.00;99357.81;10416082;28;20034;-79
2022/02/18 10:22:01;;;;;;;6.82;2.17;;;;;;;10.26;100.00;99358.88;10416947;28;20038;-80
2022/02/18 10:27:02;;;;;;;3.28;2.97;;;;;;;10.17;100.00;99349.41;10432863;28;20034;-80
2022/02/18 10:32:15;;;;;;;4.40;3.00;;;;;;;10.16;100.00;99324.25;10415919;28;20401;-79
2022/02/18 10:37:15;;;;;;;14.35;3.05;;;;;;;10.24;100.00;99310.38;10414334;28;20033;-79
2022/02/18 10:42:16;;;;;;;2.03;1.52;;;;;;;10.22;100.00;99298.16;10420622;28;20045;-78
2022/02/18 10:47:21;;;;;;;3.70;3.05;;;;;;;10.31;100.00;99261.59;10420668;28;20497;-79
2022/02/18 10:52:24;;;;;;;3.60;3.30;;;;;;;10.38;100.00;99256.88;10419436;28;20037;-78
2022/02/18 10:57:25;;;;;;;2.35;2.25;;;;;;;10.50;100.00;99253.31;10417196;28;20381;-77
2022/02/18 11:02:42;;;;;;;4.28;3.15;;;;;;;10.48;100.00;99240.88;10421408;28;20109;-75
2022/02/18 11:07:42;;;;;;;4.35;1.77;;;;;;;10.46;100.00;99231.34;10419461;28;20124;-75
2022/02/18 11:12:53;;;;;;;1.75;1.65;;;;;;;10.36;100.00;99242.75;10417345;28;20128;-74
2022/02/18 11:17:54;;;;;;;1.58;1.48;;;;;;;10.30;100.00;99281.56;10397814;28;20111;-74
2022/02/18 11:22:55;;;;;;;13.20;3.45;;;;;;;9.89;100.00;99260.81;10415145;28;20052;-73
2022/02/18 11:27:56;;;;;;;10.90;3.88;;;;;;;9.45;100.00;99262.97;10414411;28;20476;-75
2022/02/18 11:33:11;;;;;;;17.17;3.25;;;;;;;9.27;100.00;99239.53;10369584;28;20056;-76
2022/02/18 11:38:38;;;;;;;17.90;4.40;;;;;;;9.27;100.00;99199.03;10425358;28;20445;-76
2022/02/18 11:43:45;;;;;;;17.67;4.93;;;;;;;9.31;100.00;99178.59;10428994;28;20069;-78
2022/02/18 11:48:47;;;;;;;22.73;4.88;;;;;;;9.44;100.00;99172.97;10351928;28;20046;-75
2022/02/18 11:53:59;;;;;;;31.80;6.78;;;;;;;9.65;100.00;99125.66;10419860;28;20029;-76
2022/02/18 11:59:02;;;;;;;10.35;4.07;;;;;;;9.58;97.56;99089.84;10421592;28;20476;-75
2022/02/18 12:04:13;;;;;;;12.55;5.55;;;;;;;9.60;97.03;99097.69;10420703;28;20064;-74
2022/02/18 12:09:13;;;;;;;21.63;3.80;;;;;;;9.70;96.35;99092.50;10419783;28;20034;-75
2022/02/18 12:14:14;;;;;;;13.98;5.60;;;;;;;9.83;98.35;99108.50;10420680;28;20420;-76
2022/02/18 12:19:17;;;;;;;7.82;4.22;;;;;;;9.75;95.63;99060.19;10421220;28;20037;-76
2022/02/18 12:24:45;;;;;;;13.45;6.47;;;;;;;9.66;96.26;99064.31;10403704;28;20037;-76
2022/02/18 12:29:46;;;;;;;12.80;5.38;;;;;;;9.67;95.40;99023.56;10421651;28;20033;-75
2022/02/18 12:35:04;;;;;;;12.07;5.55;;;;;;;9.63;92.60;99048.56;10419719;28;20083;-80
2022/02/18 12:40:17;;;;;;;19.63;5.57;;;;;;;9.73;90.35;98970.41;10407635;28;20114;-76
2022/02/18 12:45:18;;;;;;;21.33;5.30;;;;;;;9.82;89.56;98993.31;10420006;28;20037;-77
2022/02/18 12:50:18;;;;;;;21.83;5.20;;;;;;;9.98;89.67;99002.53;10385795;28;20033;-76
2022/02/18 12:55:22;;;;;;;18.67;7.32;;;;;;;10.12;88.91;98960.66;10419137;28;20069;-77
2022/02/18 13:00:24;;;;;;;18.08;6.20;;;;;;;10.12;89.10;98943.59;10419416;28;20191;-77
2022/02/18 13:05:36;;;;;;;19.98;5.55;;;;;;;10.14;89.02;98933.34;10401946;28;20035;-77
2022/02/18 13:10:37;;;;;;;25.92;7.03;;;;;;;10.10;88.19;98946.53;10422473;28;20037;-77
2022/02/18 13:15:38;;;;;;;19.10;6.50;;;;;;;10.27;86.16;98933.06;10401209;28;20052;-77
2022/02/18 13:20:44;;;;;;;27.23;6.63;;;;;;;10.55;86.91;98913.25;10400358;28;20500;-77
2022/02/18 13:25:49;;;;;;;21.75;6.80;;;;;;;10.56;82.75;98893.25;10401603;28;20042;-77
2022/02/18 13:30:51;;;;;;;25.15;8.75;;;;;;;10.60;79.25;98880.06;10400191;28;20039;-77
2022/02/18 13:35:56;;;;;;;16.85;6.10;;;;;;;10.56;80.18;98868.06;10418615;28;20033;-76
2022/02/18 13:41:02;;;;;;;30.10;9.60;;;;;;;10.68;78.58;98882.31;10421389;28;20045;-76
2022/02/18 13:46:04;;;;;;;34.97;10.38;;;;;;;10.65;77.64;98888.22;10441855;28;20068;-79
2022/02/18 13:51:06;;;;;;;22.23;8.25;;;;;;;10.72;74.90;98869.94;10438791;28;20049;-78
2022/02/18 13:56:26;;;;;;;21.15;7.78;;;;;;;10.87;73.54;98797.03;10425512;28;20358;-77
2022/02/18 14:01:27;;;;;;;29.63;8.02;;;;;;;10.79;74.09;98797.50;10428005;28;20040;-77
2022/02/18 14:06:30;;;;;;;35.58;11.95;;;;;;;10.77;71.63;98837.53;10430494;28;20096;-79
2022/02/18 14:11:30;;;;;;;19.08;7.32;;;;;;;10.70;71.27;98812.53;10417975;28;20068;-78
2022/02/18 14:16:31;;;;;;;49.13;11.63;;;;;;;10.55;73.11;98785.25;10417246;28;20464;-78
2022/02/18 14:21:35;;;;;;;27.60;9.85;;;;;;;10.51;73.41;98805.75;10433122;28;20041;-79
2022/02/18 14:26:36;;;;;;;53.15;13.13;;;;;;;10.28;77.31;98787.84;10384210;28;20041;-79
2022/02/18 14:31:38;;;;;;;17.88;8.55;;;;;;;10.07;76.16;98803.69;10415344;28;20041;-79
2022/02/18 14:36:43;;;;;;;48.47;8.35;;;;;;;10.20;74.95;98776.31;10422034;28;20171;-78
2022/02/18 14:42:09;;;;;;;39.78;13.73;;;;;;;10.35;70.98;98767.66;10386411;28;20045;-80
2022/02/18 14:47:09;;;;;;;51.65;12.13;;;;;;;9.98;73.48;98770.81;10418194;28;20095;-79
2022/02/18 14:52:10;;;;;;;44.88;12.18;;;;;;;9.75;76.32;98744.78;10418200;28;20458;-79
2022/02/18 14:57:10;;;;;;;39.60;12.10;;;;;;;9.66;77.73;98769.75;10419042;28;20124;-78
2022/02/18 15:02:11;;;;;;;37.17;12.45;;;;;;;9.65;79.87;98773.53;10418041;28;20044;-79
2022/02/18 15:07:11;;;;;;;53.40;17.40;;;;;;;9.53;76.61;98750.06;10435667;28;20045;-79
2022/02/18 15:12:12;;;;;;;53.00;16.60;;;;;;;9.46;78.56;98783.72;10442575;28;20044;-79
2022/02/18 15:17:15;;;;;;;63.10;15.45;;;;;;;9.30;79.30;98802.31;10408730;28;20042;-79
2022/02/18 15:22:16;;;;;;;49.95;12.32;;;;;;;9.10;80.29;98779.53;10408498;28;20033;-79
2022/02/18 15:27:16;;;;;;;44.78;13.40;;;;;;;9.02;78.92;98761.81;10442215;28;20033;-78
2022/02/18 15:37:36;;;;;;;44.28;12.98;;;;;;;8.80;80.61;98785.91;10379255;28;20094;-78
2022/02/18 15:42:37;;;;;;;36.85;13.93;;;;;;;8.57;81.25;98835.34;10375265;28;20038;-79
2022/02/18 15:47:37;;;;;;;53.03;14.75;;;;;;;8.48;81.32;98793.59;10371527;28;20034;-78
2022/02/18 15:52:37;;;;;;;43.25;11.80;;;;;;;8.53;82.84;98844.97;10399728;28;20092;-79
2022/02/18 15:57:38;;;;;;;53.33;14.70;;;;;;;8.44;83.33;98854.47;10381687;28;20061;-79
2022/02/18 16:02:44;;;;;;;45.80;13.98;;;;;;;8.40;84.26;98834.41;10382015;28;20466;-79
2022/02/18 16:07:44;;;;;;;67.43;14.70;;;;;;;8.33;85.73;98883.03;10381365;28;20174;-78
2022/02/18 16:12:45;;;;;;;40.92;11.77;;;;;;;8.37;85.09;98909.28;10368922;28;20088;-79
2022/02/18 16:17:46;;;;;;;24.92;6.97;;;;;;;8.38;76.75;98923.63;10399562;28;20030;-79
2022/02/18 16:22:46;;;;;;;24.23;6.32;;;;;;;8.37;75.81;98911.19;10403076;28;20034;-77
2022/02/18 16:27:46;;;;;;;32.30;6.47;;;;;;;8.27;75.92;98965.69;10386112;28;20053;-78
2022/02/18 16:32:48;;;;;;;24.95;7.00;;;;;;;8.16;77.04;98948.38;10385769;28;20049;-79
2022/02/18 16:37:49;;;;;;;20.20;7.47;;;;;;;8.15;76.44;98989.91;10386968;28;20077;-79
2022/02/18 16:42:50;;;;;;;19.13;8.32;;;;;;;8.15;77.53;99033.03;10379885;28;20057;-78
2022/02/18 16:47:51;;;;;;;20.23;6.70;;;;;;;8.07;76.80;99038.75;10379945;28;20522;-79
2022/02/18 16:52:51;;;;;;;13.60;5.03;;;;;;;7.86;79.14;99040.03;10380020;28;20076;-78
2022/02/18 16:57:52;;;;;;;26.45;5.65;;;;;;;7.76;80.19;99093.63;10379143;28;20069;-79
2022/02/18 17:02:52;;;;;;;20.52;5.47;;;;;;;7.75;77.66;99096.53;10385560;28;20057;-78
2022/02/18 17:07:53;;;;;;;23.92;5.68;;;;;;;7.77;78.20;99121.41;10381740;28;20033;-78
2022/02/18 17:12:53;;;;;;;33.20;6.47;;;;;;;7.69;77.89;99155.66;10377670;28;20385;-78
2022/02/18 17:17:54;;;;;;;15.48;4.75;;;;;;;7.69;78.00;99168.31;10376920;28;20116;-78
2022/02/18 17:22:58;;;;;;;19.95;7.25;;;;;;;7.64;77.35;99200.47;10376687;28;20045;-78
2022/02/18 17:27:59;;;;;;;30.65;5.90;;;;;;;7.63;78.93;99213.13;10376979;28;20038;-78
2022/02/18 17:33:00;;;;;;;20.85;5.85;;;;;;;7.42;79.20;99278.13;10387797;28;20046;-79
2022/02/18 17:38:00;;;;;;;9.80;4.40;;;;;;;7.30;79.29;99288.75;10362606;28;20475;-78
2022/02/18 17:43:01;;;;;;;21.48;5.72;;;;;;;7.35;78.18;99334.72;10377564;28;20034;-77
2022/02/18 17:48:03;;;;;;;31.85;5.90;;;;;;;7.36;77.24;99362.47;10377015;28;20065;-78
2022/02/18 17:53:03;;;;;;;17.77;5.30;;;;;;;7.12;73.32;99355.94;10375567;28;20042;-78
2022/02/18 17:58:05;;;;;;;15.95;5.88;;;;;;;7.11;74.24;99397.34;10375205;28;20041;-78
2022/02/18 18:03:08;;;;;;;22.35;3.75;;;;;;;7.09;72.03;99427.19;10358729;28;20038;-78
2022/02/18 18:08:09;;;;;;;11.23;4.45;;;;;;;6.95;70.74;99414.78;10376570;28;20033;-77
2022/02/18 18:13:09;;;;;;;17.73;6.18;;;;;;;6.99;72.50;99437.56;10376942;28;20030;-77
2022/02/18 18:18:09;;;;;;;21.90;5.15;;;;;;;7.17;73.76;99464.63;10374822;28;20122;-77
2022/02/18 18:23:12;;;;;;;11.77;6.82;;;;;;;7.28;73.06;99467.72;10375028;28;20125;-78
2022/02/18 18:28:12;;;;;;;21.73;6.45;;;;;;;7.34;73.32;99518.03;10391635;28;20040;-77
2022/02/18 18:33:13;;;;;;;13.65;5.22;;;;;;;7.32;72.76;99544.34;10381001;28;20045;-77
2022/02/18 18:38:13;;;;;;;17.50;5.28;;;;;;;7.19;70.74;99558.66;10379407;28;20386;-77
2022/02/18 18:43:13;;;;;;;11.25;3.10;;;;;;;7.11;70.70;99578.53;10372976;28;20040;-77
2022/02/18 18:48:14;;;;;;;12.30;4.85;;;;;;;6.96;69.96;99613.72;10388894;28;20030;-77
2022/02/18 18:53:15;;;;;;;31.95;6.00;;;;;;;6.75;69.03;99613.91;10388728;28;20045;-77
2022/02/18 18:58:15;;;;;;;10.43;4.07;;;;;;;6.55;69.33;99600.41;10396619;28;20044;-77
2022/02/18 19:03:16;;;;;;;23.30;4.40;;;;;;;6.52;68.66;99635.78;10398102;28;20044;-77
2022/02/18 19:08:16;;;;;;;9.45;5.53;;;;;;;6.51;69.13;99639.53;10389513;28;20037;-77
2022/02/18 19:13:17;;;;;;;21.05;5.30;;;;;;;6.48;69.72;99635.38;10371929;28;20033;-76
2022/02/18 19:18:17;;;;;;;13.85;5.28;;;;;;;6.48;65.91;99669.50;10386849;28;20121;-76
2022/02/18 19:23:17;;;;;;;11.68;4.40;;;;;;;6.42;63.69;99678.38;10372645;28;20034;-77
2022/02/18 19:28:18;;;;;;;12.93;4.78;;;;;;;6.36;62.49;99653.09;10390293;28;20477;-77
2022/02/18 19:33:18;;;;;;;14.45;3.83;;;;;;;6.35;63.24;99683.72;10378247;28;20030;-77
2022/02/18 19:38:19;;;;;;;9.05;5.75;;;;;;;6.36;65.23;99689.94;10387207;28;20056;-77
2022/02/18 19:43:19;;;;;;;22.10;4.15;;;;;;;6.34;64.99;99714.31;10389727;28;20034;-77
2022/02/18 19:48:22;;;;;;;10.20;3.60;;;;;;;6.49;64.13;99714.19;10391086;28;20037;-76
2022/02/18 19:53:23;;;;;;;11.25;4.72;;;;;;;6.45;64.83;99723.69;10384582;28;20041;-76
2022/02/18 19:58:24;;;;;;;12.13;4.03;;;;;;;6.52;64.72;99754.94;10380702;28;20425;-76
2022/02/18 20:03:24;;;;;;;14.02;5.43;;;;;;;6.51;66.57;99757.84;10380696;28;20465;-76
2022/02/18 20:08:25;;;;;;;19.48;6.07;;;;;;;6.46;64.73;99761.13;10379810;28;20034;-76
2022/02/18 20:13:25;;;;;;;14.40;4.38;;;;;;;6.51;64.85;99764.06;10380228;28;20116;-76
2022/02/18 20:18:26;;;;;;;18.17;5.13;;;;;;;6.57;65.80;99783.09;10362796;28;20084;-76
2022/02/18 20:23:26;;;;;;;22.92;7.03;;;;;;;6.63;67.63;99810.03;10363286;28;20045;-76
2022/02/18 20:28:27;;;;;;;33.33;5.00;;;;;;;6.59;67.15;99819.53;10378638;28;20429;-75
2022/02/18 20:33:27;;;;;;;11.60;6.22;;;;;;;6.56;67.37;99822.63;10384011;28;20041;-75
2022/02/18 20:38:28;;;;;;;18.38;7.60;;;;;;;6.53;69.54;99829.22;10378719;28;20170;-75
2022/02/18 20:43:28;;;;;;;25.88;6.43;;;;;;;6.41;69.59;99833.47;10361741;28;20116;-75
2022/02/18 20:48:29;;;;;;;41.50;7.00;;;;;;;6.33;68.93;99841.72;10379059;28;20030;-75
2022/02/18 20:53:30;;;;;;;34.95;9.40;;;;;;;6.34;68.26;99794.13;10381884;28;20072;-76
2022/02/18 20:58:31;;;;;;;22.85;6.38;;;;;;;6.32;69.42;99868.78;10381530;28;20033;-76
2022/02/18 21:03:31;;;;;;;17.35;5.40;;;;;;;6.23;67.26;99887.75;10379194;28;20125;-75
2022/02/18 21:08:34;;;;;;;19.45;5.50;;;;;;;6.11;65.60;99900.06;10361161;28;20069;-75
2022/02/18 21:13:34;;;;;;;21.35;6.53;;;;;;;5.96;67.70;99902.78;10377896;28;20076;-74
2022/02/18 21:18:35;;;;;;;14.52;4.43;;;;;;;5.91;70.58;99920.50;10375938;28;20076;-75
2022/02/18 21:23:36;;;;;;;20.30;5.22;;;;;;;5.86;70.67;99921.06;10360629;28;20097;-75
2022/02/18 21:28:36;;;;;;;17.02;5.93;;;;;;;5.72;71.25;99925.47;10379631;28;20037;-74
2022/02/18 21:33:39;;;;;;;12.00;5.00;;;;;;;5.62;71.86;99981.34;10385056;28;20037;-75
2022/02/18 21:38:39;;;;;;;24.23;8.40;;;;;;;5.52;74.29;99989.72;10377201;28;20133;-75
2022/02/18 21:43:40;;;;;;;24.13;6.00;;;;;;;5.45;75.39;100004.03;10360511;28;20385;-75
2022/02/18 21:48:41;;;;;;;14.43;4.75;;;;;;;5.35;75.93;100010.53;10376302;28;20049;-75
2022/02/18 21:53:41;;;;;;;15.82;4.55;;;;;;;5.32;74.78;100031.53;10375654;28;20231;-75
2022/02/18 21:58:41;;;;;;;10.73;4.00;;;;;;;5.34;75.48;100008.88;10376272;28;20485;-75
2022/02/18 22:03:42;;;;;;;9.77;5.30;;;;;;;5.29;76.06;100031.91;10376280;28;20177;-75
2022/02/18 22:08:42;;;;;;;13.60;4.57;;;;;;;5.29;75.52;100056.91;10375649;28;20041;-75
2022/02/18 22:13:43;;;;;;;12.77;4.60;;;;;;;5.21;76.63;100083.84;10373777;28;20038;-75
2022/02/18 22:18:43;;;;;;;21.13;7.60;;;;;;;5.28;77.29;100070.53;10358449;28;20038;-75
2022/02/18 22:23:44;;;;;;;19.70;5.28;;;;;;;5.28;77.48;100083.94;10377036;28;20042;-75
2022/02/18 22:28:44;;;;;;;14.07;4.45;;;;;;;5.31;77.28;100099.69;10375357;28;20065;-75
2022/02/18 22:33:45;;;;;;;18.13;5.22;;;;;;;5.24;77.48;100120.22;10361494;28;20040;-75
2022/02/18 22:38:45;;;;;;;9.77;3.95;;;;;;;5.12;78.27;100123.34;10375482;28;20529;-75
2022/02/18 22:43:46;;;;;;;39.08;5.85;;;;;;;5.03;78.23;100129.78;10373881;28;20481;-75
2022/02/18 22:48:46;;;;;;;12.73;5.43;;;;;;;5.02;78.65;100117.38;10375146;28;20038;-75
2022/02/18 22:53:46;;;;;;;12.30;4.45;;;;;;;4.96;78.95;100162.88;10375651;28;20037;-75
2022/02/18 22:58:47;;;;;;;27.02;5.22;;;;;;;4.91;78.93;100168.78;10357993;28;20117;-75
2022/02/18 23:03:47;;;;;;;14.18;5.38;;;;;;;4.89;79.09;100166.28;10374222;28;20044;-75
2022/02/18 23:08:48;;;;;;;13.48;5.60;;;;;;;5.01;80.69;100198.91;10378883;28;20038;-74
2022/02/18 23:13:48;;;;;;;11.77;4.95;;;;;;;5.09;78.45;100200.69;10378860;28;20042;-75